Time;durP1;ratioP1;P1;durP2;ratioP2;P2;SDS_P1;SDS_P2;PMS_P1;PMS_P2;Temp;Humidity;BMP_temperature;BMP_pressure;BME280_temperature;BME280_humidity;BME280_pressure;Samples;Min_cycle;Max_cycle;Signal;HPM_P1;HPM_P2
2022/07/21 00:00:40;;;;;;;21.63;11.45;;;18.70;99.90;;;;;;5066051;28;20052;-64
2022/07/21 00:03:05;;;;;;;21.17;11.70;;;18.70;99.90;;;;;;5067444;28;20111;-64
2022/07/21 00:05:32;;;;;;;21.42;11.45;;;18.60;99.90;;;;;;5068401;28;20076;-64
2022/07/21 00:07:58;;;;;;;22.02;11.70;;;18.60;99.90;;;;;;5063172;28;20059;-64
2022/07/21 00:10:25;;;;;;;19.13;11.90;;;18.50;99.90;;;;;;5067299;28;20650;-64
2022/07/21 00:12:53;;;;;;;21.63;12.02;;;18.50;99.90;;;;;;5067298;28;20279;-64
2022/07/21 00:15:22;;;;;;;21.02;11.88;;;18.40;99.90;;;;;;5068389;28;20110;-64
2022/07/21 00:17:48;;;;;;;22.85;12.30;;;18.70;99.90;;;;;;5067164;28;20115;-64
2022/07/21 00:20:16;;;;;;;19.35;11.55;;;18.80;99.90;;;;;;5047873;28;20139;-64
2022/07/21 00:22:42;;;;;;;20.73;11.68;;;18.70;99.90;;;;;;5065320;28;20025;-64
2022/07/21 00:25:09;;;;;;;19.38;11.55;;;18.70;99.90;;;;;;5051371;28;20123;-63
2022/07/21 00:27:35;;;;;;;21.50;13.75;;;18.70;99.90;;;;;;5048890;28;20131;-64
2022/07/21 00:30:01;;;;;;;20.70;12.60;;;18.60;99.90;;;;;;5069124;28;20116;-63
2022/07/21 00:32:27;;;;;;;20.65;12.98;;;18.70;99.90;;;;;;5070221;28;20112;-64
2022/07/21 00:34:52;;;;;;;24.65;13.65;;;18.70;99.90;;;;;;5066841;28;20491;-64
2022/07/21 00:37:18;;;;;;;22.52;14.48;;;18.70;99.90;;;;;;5070038;28;20380;-64
2022/07/21 00:39:44;;;;;;;24.23;14.30;;;18.80;99.90;;;;;;5048844;28;20419;-64
2022/07/21 00:42:23;;;;;;;24.95;15.35;;;18.80;99.90;;;;;;5058683;28;20100;-64
2022/07/21 00:44:49;;;;;;;25.63;15.73;;;18.70;99.90;;;;;;5065045;28;20403;-64
2022/07/21 00:47:18;;;;;;;24.45;15.02;;;18.70;99.90;;;;;;5069505;28;20342;-64
2022/07/21 00:49:44;;;;;;;28.73;15.27;;;18.70;99.90;;;;;;5048470;28;20040;-64
2022/07/21 00:52:10;;;;;;;25.95;14.80;;;18.70;99.90;;;;;;5067067;28;20431;-64
2022/07/21 00:54:36;;;;;;;27.85;15.13;;;18.70;99.90;;;;;;5065564;28;20067;-64
2022/07/21 00:57:02;;;;;;;27.77;16.33;;;18.70;99.90;;;;;;5064822;28;20491;-64
2022/07/21 00:59:29;;;;;;;28.67;16.02;;;18.60;99.90;;;;;;5068516;28;20036;-64
2022/07/21 01:01:55;;;;;;;36.55;16.48;;;18.70;99.90;;;;;;5067560;28;20369;-64
2022/07/21 01:04:21;;;;;;;32.38;17.02;;;18.70;99.90;;;;;;5049007;28;20135;-64
2022/07/21 01:06:47;;;;;;;30.02;17.10;;;18.70;99.90;;;;;;5067895;28;20050;-64
2022/07/21 01:09:13;;;;;;;27.77;16.25;;;18.70;99.90;;;;;;5048631;28;20268;-64
2022/07/21 01:11:40;;;;;;;33.10;18.77;;;18.70;99.90;;;;;;5065043;28;20044;-64
2022/07/21 01:14:06;;;;;;;42.10;17.92;;;18.70;99.90;;;;;;5066698;28;20054;-64
2022/07/21 01:16:31;;;;;;;25.08;14.35;;;18.70;99.90;;;;;;5068455;28;20473;-66
2022/07/21 01:18:57;;;;;;;25.50;12.40;;;18.70;99.90;;;;;;5067759;28;20364;-66
2022/07/21 01:21:33;;;;;;;19.30;9.63;;;18.60;99.90;;;;;;5049434;28;20369;-66
2022/07/21 01:24:00;;;;;;;23.58;12.00;;;18.50;99.90;;;;;;5067545;28;20158;-66
2022/07/21 01:26:27;;;;;;;19.63;11.18;;;18.30;99.90;;;;;;5063271;28;20051;-66
2022/07/21 01:28:53;;;;;;;19.95;12.27;;;18.30;99.90;;;;;;5067316;28;20028;-66
2022/07/21 01:31:18;;;;;;;21.30;12.00;;;18.30;99.90;;;;;;5068481;28;20380;-66
2022/07/21 01:33:44;;;;;;;17.30;11.40;;;18.20;99.90;;;;;;5066222;28;20035;-66
2022/07/21 01:36:10;;;;;;;20.65;11.57;;;18.20;99.90;;;;;;5050721;28;20024;-66
2022/07/21 01:41:29;;;;;;;20.13;12.15;;;18.00;99.90;;;;;;5064089;28;20055;-66
2022/07/21 01:44:03;;;;;;;21.45;11.57;;;17.90;99.90;;;;;;5063512;28;20492;-66
2022/07/21 01:46:31;;;;;;;23.17;12.57;;;17.90;99.90;;;;;;5065220;28;20034;-66
2022/07/21 01:48:56;;;;;;;20.65;12.43;;;18.00;99.90;;;;;;5044498;28;20067;-66
2022/07/21 01:51:22;;;;;;;22.95;12.52;;;18.10;99.90;;;;;;5044821;28;20059;-66
2022/07/21 01:53:48;;;;;;;26.00;13.90;;;18.10;99.90;;;;;;5061984;28;20086;-66
2022/07/21 01:56:13;;;;;;;22.33;13.20;;;18.20;99.90;;;;;;5042533;28;20038;-66
2022/07/21 01:58:39;;;;;;;25.83;13.40;;;18.30;99.90;;;;;;5037600;28;20400;-66
2022/07/21 02:01:05;;;;;;;26.45;14.63;;;18.30;99.90;;;;;;5063239;28;20090;-66
2022/07/21 02:03:31;;;;;;;24.35;13.68;;;18.30;99.90;;;;;;5066352;28;20107;-67
2022/07/21 02:06:04;;;;;;;23.17;13.20;;;18.30;99.90;;;;;;5067479;28;20020;-67
2022/07/21 02:08:30;;;;;;;25.08;13.25;;;18.20;99.90;;;;;;5065577;28;20032;-67
2022/07/21 02:10:56;;;;;;;23.02;14.80;;;18.20;99.90;;;;;;5065728;28;20127;-67
2022/07/21 02:13:21;;;;;;;27.58;15.43;;;18.10;99.90;;;;;;5064066;28;20132;-67
2022/07/21 02:15:47;;;;;;;32.03;14.82;;;18.10;99.90;;;;;;5043890;28;20076;-67
2022/07/21 02:18:13;;;;;;;26.48;13.90;;;18.00;99.90;;;;;;5065958;28;20051;-67
2022/07/21 02:20:38;;;;;;;24.10;13.43;;;18.00;99.90;;;;;;5048327;28;20021;-67
2022/07/21 02:23:04;;;;;;;28.58;13.10;;;18.00;99.90;;;;;;5045198;28;20089;-68
2022/07/21 02:25:30;;;;;;;22.55;11.57;;;18.00;99.90;;;;;;5041632;28;20430;-68
2022/07/21 02:27:55;;;;;;;18.42;11.13;;;17.90;99.90;;;;;;5046353;28;20040;-68
2022/07/21 02:30:21;;;;;;;19.00;10.80;;;17.80;99.90;;;;;;5044527;28;20024;-67
2022/07/21 02:32:47;;;;;;;15.45;7.93;;;17.80;99.90;;;;;;5066335;28;20037;-67
2022/07/21 02:35:13;;;;;;;17.67;9.65;;;17.80;99.90;;;;;;5063947;28;20485;-67
2022/07/21 02:37:39;;;;;;;23.33;7.38;;;17.70;99.90;;;;;;5049616;28;20024;-67
2022/07/21 02:40:05;;;;;;;14.55;7.50;;;17.50;99.90;;;;;;5063860;28;20027;-67
2022/07/21 02:42:31;;;;;;;14.23;7.35;;;17.50;99.90;;;;;;5063700;28;20032;-67
2022/07/21 02:44:56;;;;;;;14.80;7.53;;;17.40;99.90;;;;;;5067042;28;20024;-67
2022/07/21 02:47:22;;;;;;;13.65;6.95;;;17.30;99.90;;;;;;5063492;28;20538;-67
2022/07/21 02:49:48;;;;;;;15.00;7.70;;;17.40;99.90;;;;;;5067291;28;20111;-67
2022/07/21 02:52:15;;;;;;;17.20;7.60;;;17.30;99.90;;;;;;5041939;28;20029;-67
2022/07/21 02:54:40;;;;;;;13.82;7.65;;;17.20;99.90;;;;;;5047872;28;20031;-67
2022/07/21 02:57:06;;;;;;;25.48;8.10;;;17.20;99.90;;;;;;5064535;28;20411;-67
2022/07/21 02:59:32;;;;;;;14.85;7.40;;;17.20;99.90;;;;;;5066602;28;20051;-67
2022/07/21 03:01:57;;;;;;;18.15;8.15;;;17.30;99.90;;;;;;5064416;28;20032;-67
2022/07/21 03:04:24;;;;;;;16.08;8.05;;;17.30;99.90;;;;;;5049110;28;20020;-67
2022/07/21 03:06:49;;;;;;;14.60;8.13;;;17.30;99.90;;;;;;5066867;28;20514;-67
2022/07/21 03:09:15;;;;;;;15.70;8.43;;;17.30;99.90;;;;;;5067181;28;20058;-67
2022/07/21 03:11:40;;;;;;;15.98;8.68;;;17.30;99.90;;;;;;5064126;28;20025;-67
2022/07/21 03:14:06;;;;;;;19.10;9.63;;;17.30;99.90;;;;;;5066591;28;20027;-67
2022/07/21 03:16:32;;;;;;;17.05;9.10;;;17.30;99.90;;;;;;5062798;28;20477;-67
2022/07/21 03:18:57;;;;;;;16.20;8.55;;;17.30;99.90;;;;;;5064673;28;20027;-67
2022/07/21 03:21:23;;;;;;;17.08;9.18;;;17.20;99.90;;;;;;5066341;28;20024;-67
2022/07/21 03:23:49;;;;;;;15.77;8.65;;;17.20;99.90;;;;;;5066149;28;20414;-67
2022/07/21 03:26:15;;;;;;;17.60;9.13;;;17.30;99.90;;;;;;5051037;28;20041;-67
2022/07/21 03:28:42;;;;;;;19.83;9.13;;;17.30;99.90;;;;;;5065215;28;20028;-67
2022/07/21 03:31:08;;;;;;;16.02;8.55;;;17.30;99.90;;;;;;5066350;28;20029;-67
2022/07/21 03:33:34;;;;;;;16.45;8.52;;;17.30;99.90;;;;;;5064979;28;20107;-67
2022/07/21 03:35:59;;;;;;;17.52;8.75;;;17.30;99.90;;;;;;5064371;28;20099;-67
2022/07/21 03:38:26;;;;;;;14.98;8.18;;;17.30;99.90;;;;;;5069268;28;20127;-67
2022/07/21 03:40:52;;;;;;;15.68;8.95;;;17.30;99.90;;;;;;5067789;28;20016;-67
2022/07/21 03:43:18;;;;;;;16.13;9.75;;;17.30;99.90;;;;;;5066750;28;20111;-67
2022/07/21 03:45:43;;;;;;;18.20;9.30;;;17.30;99.90;;;;;;5070070;28;20100;-67
2022/07/21 03:48:09;;;;;;;16.38;9.50;;;17.20;99.90;;;;;;5066255;28;20028;-67
2022/07/21 03:50:40;;;;;;;15.35;8.68;;;17.30;99.90;;;;;;5067841;28;20392;-67
2022/07/21 03:53:06;;;;;;;20.50;10.43;;;17.20;99.90;;;;;;5056866;28;20035;-67
2022/07/21 03:55:32;;;;;;;23.40;11.98;;;17.30;99.90;;;;;;5050648;28;20024;-67
2022/07/21 03:58:00;;;;;;;22.60;11.07;;;17.30;99.90;;;;;;5067768;28;20020;-67
2022/07/21 04:00:30;;;;;;;20.20;11.40;;;17.30;99.90;;;;;;5066719;28;20056;-67
2022/07/21 04:02:57;;;;;;;17.95;10.02;;;17.30;99.90;;;;;;5066196;28;20028;-67
2022/07/21 04:05:23;;;;;;;19.17;10.93;;;17.30;99.90;;;;;;5066278;28;20033;-67
2022/07/21 04:07:51;;;;;;;20.42;11.30;;;17.40;99.90;;;;;;5067790;28;20020;-67
2022/07/21 04:10:20;;;;;;;18.98;10.00;;;17.40;99.90;;;;;;5067912;28;20025;-67
2022/07/21 04:12:47;;;;;;;20.40;10.93;;;17.30;99.90;;;;;;5044859;28;20018;-67
2022/07/21 04:15:13;;;;;;;20.23;10.68;;;17.30;99.90;;;;;;5067835;28;20040;-67
2022/07/21 04:17:39;;;;;;;19.92;10.65;;;17.30;99.90;;;;;;5069055;28;20028;-67
2022/07/21 04:20:07;;;;;;;16.38;9.38;;;17.30;99.90;;;;;;5065568;28;20032;-67
2022/07/21 04:22:33;;;;;;;20.77;10.23;;;17.30;99.90;;;;;;5065725;28;20055;-67
2022/07/21 04:24:59;;;;;;;17.17;10.32;;;17.30;99.90;;;;;;5068161;28;20032;-67
2022/07/21 04:27:25;;;;;;;19.65;10.70;;;17.50;99.90;;;;;;5068935;28;20081;-67
2022/07/21 04:29:51;;;;;;;18.95;10.45;;;17.40;99.90;;;;;;5051465;28;20031;-67
2022/07/21 04:32:17;;;;;;;19.83;10.90;;;17.40;99.90;;;;;;5067627;28;20025;-67
2022/07/21 04:34:42;;;;;;;18.33;10.30;;;17.50;99.90;;;;;;5066221;28;20047;-67
2022/07/21 04:37:08;;;;;;;18.27;10.10;;;17.60;99.90;;;;;;5064849;28;20291;-67
2022/07/21 04:39:34;;;;;;;19.65;11.05;;;17.50;99.90;;;;;;5066349;28;20013;-67
2022/07/21 04:41:59;;;;;;;19.38;10.15;;;17.50;99.90;;;;;;5062639;28;20136;-67
2022/07/21 04:44:25;;;;;;;17.73;10.00;;;17.60;99.90;;;;;;5065410;28;20025;-67
2022/07/21 04:46:51;;;;;;;19.88;10.20;;;17.60;99.90;;;;;;5066517;28;20082;-67
2022/07/21 04:49:16;;;;;;;16.75;9.73;;;17.60;99.90;;;;;;5064346;28;20024;-67
2022/07/21 04:51:42;;;;;;;17.67;10.02;;;17.80;99.90;;;;;;5065586;28;20029;-67
2022/07/21 04:54:08;;;;;;;16.58;9.52;;;17.70;99.90;;;;;;5056241;28;20040;-67
2022/07/21 04:56:34;;;;;;;18.60;10.18;;;17.70;99.90;;;;;;5066042;28;20048;-67
2022/07/21 04:59:03;;;;;;;19.55;10.25;;;17.70;99.90;;;;;;5047901;28;20487;-67
2022/07/21 05:01:29;;;;;;;19.58;10.50;;;17.80;99.90;;;;;;5062829;28;20636;-67
2022/07/21 05:03:54;;;;;;;21.80;11.48;;;17.90;99.90;;;;;;5067737;28;20024;-67
2022/07/21 05:06:20;;;;;;;20.40;10.55;;;18.00;99.90;;;;;;5045353;28;20039;-67
2022/07/21 05:08:47;;;;;;;21.17;12.02;;;18.10;99.90;;;;;;5064244;28;20036;-66
2022/07/21 05:11:13;;;;;;;19.77;11.35;;;18.20;99.90;;;;;;5064742;28;20393;-67
2022/07/21 05:13:39;;;;;;;21.17;11.25;;;18.30;99.90;;;;;;5065181;28;20032;-67
2022/07/21 05:16:05;;;;;;;22.55;12.27;;;18.40;99.90;;;;;;5067296;28;20138;-67
2022/07/21 05:18:31;;;;;;;19.98;12.25;;;18.40;99.90;;;;;;5046990;28;20048;-67
2022/07/21 05:20:57;;;;;;;23.95;12.65;;;18.40;99.90;;;;;;5066728;28;20028;-67
2022/07/21 05:23:23;;;;;;;21.83;12.10;;;18.50;99.90;;;;;;5066930;28;20028;-67
2022/07/21 05:25:48;;;;;;;21.27;12.52;;;18.60;99.90;;;;;;5047319;28;20028;-67
2022/07/21 05:28:14;;;;;;;22.48;11.50;;;18.60;99.90;;;;;;5066112;28;20029;-67
2022/07/21 05:30:40;;;;;;;24.08;13.60;;;18.70;99.90;;;;;;5047988;28;20044;-67
2022/07/21 05:33:05;;;;;;;23.48;13.63;;;18.70;99.90;;;;;;5047912;28;20058;-67
2022/07/21 05:35:31;;;;;;;25.50;13.05;;;18.80;99.90;;;;;;5067434;28;20101;-67
2022/07/21 05:37:57;;;;;;;21.77;12.32;;;18.80;99.90;;;;;;5044486;28;20021;-67
2022/07/21 05:40:22;;;;;;;23.63;12.73;;;18.80;99.90;;;;;;5045934;28;20025;-67
2022/07/21 05:42:48;;;;;;;23.25;12.48;;;18.90;99.90;;;;;;5065149;28;20178;-64
2022/07/21 05:45:14;;;;;;;22.60;13.10;;;18.90;99.90;;;;;;5066841;28;20029;-62
2022/07/21 05:47:41;;;;;;;25.25;13.77;;;19.00;99.90;;;;;;5066334;28;20028;-62
2022/07/21 05:50:08;;;;;;;21.83;13.43;;;19.10;99.90;;;;;;5046278;28;20024;-64
2022/07/21 05:52:34;;;;;;;25.10;15.07;;;19.10;99.90;;;;;;5046781;28;20043;-64
2022/07/21 05:55:00;;;;;;;23.35;12.95;;;19.20;99.90;;;;;;5065033;28;20036;-63
2022/07/21 05:57:26;;;;;;;22.52;13.60;;;19.30;99.90;;;;;;5063544;28;20028;-62
2022/07/21 05:59:52;;;;;;;24.27;12.82;;;19.40;99.90;;;;;;5048473;28;20098;-62
2022/07/21 06:02:17;;;;;;;22.42;13.10;;;19.50;99.90;;;;;;5042568;28;20057;-62
2022/07/21 06:04:43;;;;;;;21.42;12.10;;;19.50;99.90;;;;;;5048401;28;20447;-62
2022/07/21 06:07:09;;;;;;;21.55;12.05;;;19.50;99.90;;;;;;5063600;28;20017;-63
2022/07/21 06:09:34;;;;;;;20.00;12.60;;;19.60;99.90;;;;;;5060611;28;20102;-63
2022/07/21 06:12:00;;;;;;;19.45;12.50;;;19.70;99.90;;;;;;5060312;28;20311;-62
2022/07/21 06:14:26;;;;;;;21.23;11.98;;;19.80;99.90;;;;;;5064136;28;20439;-65
2022/07/21 06:16:52;;;;;;;20.58;12.52;;;19.80;99.90;;;;;;5063549;28;20028;-65
2022/07/21 06:19:18;;;;;;;19.10;12.10;;;19.80;99.90;;;;;;5064506;28;20096;-65
2022/07/21 06:21:44;;;;;;;21.45;13.32;;;19.80;99.90;;;;;;5062989;28;20504;-65
2022/07/21 06:24:09;;;;;;;19.92;12.15;;;19.70;99.90;;;;;;5042339;28;20032;-65
2022/07/21 06:26:35;;;;;;;22.10;13.55;;;19.70;99.90;;;;;;5059965;28;20037;-65
2022/07/21 06:29:01;;;;;;;21.23;13.25;;;19.70;99.90;;;;;;5058335;28;20033;-65
2022/07/21 06:31:26;;;;;;;23.50;13.00;;;19.70;99.90;;;;;;5063504;28;20036;-65
2022/07/21 06:33:52;;;;;;;20.00;12.68;;;19.60;99.90;;;;;;5064418;28;20043;-65
2022/07/21 06:36:18;;;;;;;23.67;14.68;;;19.70;99.90;;;;;;5064844;28;20025;-65
2022/07/21 06:38:44;;;;;;;19.08;12.15;;;19.60;99.90;;;;;;5063983;28;20052;-65
2022/07/21 06:41:11;;;;;;;20.95;12.68;;;19.70;99.90;;;;;;5062646;28;20024;-65
2022/07/21 06:43:37;;;;;;;21.70;11.68;;;19.70;99.90;;;;;;5033329;28;20152;-65
2022/07/21 06:46:03;;;;;;;22.33;14.13;;;19.60;99.90;;;;;;5063980;28;20084;-65
2022/07/21 06:48:28;;;;;;;23.75;12.98;;;19.70;99.90;;;;;;5062061;28;20032;-65
2022/07/21 06:50:55;;;;;;;20.55;12.82;;;19.80;99.90;;;;;;5046010;28;20028;-65
2022/07/21 06:53:21;;;;;;;18.85;11.55;;;20.00;99.90;;;;;;5061403;28;20445;-65
2022/07/21 06:55:47;;;;;;;18.67;12.23;;;20.10;99.90;;;;;;5062681;28;20519;-65
2022/07/21 06:58:16;;;;;;;20.02;12.45;;;20.10;99.90;;;;;;5060349;28;20104;-65
2022/07/21 07:00:43;;;;;;;17.85;11.98;;;20.30;99.90;;;;;;5023211;28;20049;-65
2022/07/21 07:03:08;;;;;;;17.42;10.02;;;20.50;99.90;;;;;;5027604;28;20108;-65
2022/07/21 07:05:34;;;;;;;20.77;10.48;;;20.70;99.90;;;;;;5047577;28;20535;-65
2022/07/21 07:08:01;;;;;;;16.58;11.02;;;20.70;99.90;;;;;;5030606;28;20036;-65
2022/07/21 07:10:27;;;;;;;15.52;9.07;;;20.60;99.90;;;;;;5031843;28;20024;-65
2022/07/21 07:12:52;;;;;;;19.92;11.15;;;20.70;99.90;;;;;;5045602;28;20051;-65
2022/07/21 07:15:18;;;;;;;17.42;8.75;;;20.90;99.90;;;;;;5047414;28;20484;-65
2022/07/21 07:17:44;;;;;;;21.48;10.35;;;20.80;99.90;;;;;;5030269;28;20191;-67
2022/07/21 07:20:10;;;;;;;19.30;11.23;;;20.70;99.90;;;;;;5047322;28;20120;-65
2022/07/21 07:22:36;;;;;;;16.92;10.77;;;20.50;99.90;;;;;;5027766;28;20452;-65
2022/07/21 07:25:02;;;;;;;19.33;11.25;;;20.60;99.90;;;;;;5046429;28;20108;-66
2022/07/21 07:27:28;;;;;;;18.13;9.98;;;20.70;99.90;;;;;;5028284;28;20056;-66
2022/07/21 07:29:53;;;;;;;18.98;10.00;;;20.60;99.90;;;;;;5024487;28;20166;-66
2022/07/21 07:32:19;;;;;;;18.35;10.45;;;20.60;99.90;;;;;;5030042;28;20148;-65
2022/07/21 07:34:45;;;;;;;16.30;10.10;;;20.80;99.90;;;;;;5049171;28;20017;-66
2022/07/21 07:37:10;;;;;;;17.42;9.88;;;21.00;99.90;;;;;;5046117;28;20029;-66
2022/07/21 07:39:37;;;;;;;18.42;11.13;;;21.20;99.90;;;;;;5048633;28;20056;-66
2022/07/21 07:42:04;;;;;;;17.60;10.43;;;21.40;99.90;;;;;;5028799;28;20033;-66
2022/07/21 07:44:29;;;;;;;17.23;10.63;;;21.60;99.90;;;;;;5032934;28;20024;-66
2022/07/21 07:46:55;;;;;;;15.70;10.50;;;21.50;99.90;;;;;;5031777;28;20041;-66
2022/07/21 07:49:21;;;;;;;16.23;11.13;;;21.70;99.90;;;;;;5052784;28;20287;-66
2022/07/21 07:51:46;;;;;;;15.55;7.82;;;21.60;99.90;;;;;;5037953;28;20025;-66
2022/07/21 07:54:12;;;;;;;18.13;10.02;;;21.30;99.90;;;;;;5040447;28;20029;-66
2022/07/21 07:56:37;;;;;;;14.18;9.77;;;21.10;99.90;;;;;;5060730;28;20025;-66
2022/07/21 07:59:03;;;;;;;16.35;9.65;;;21.10;99.90;;;;;;5047805;28;20392;-66
2022/07/21 08:01:29;;;;;;;18.00;9.45;;;21.00;99.90;;;;;;5062944;28;20024;-64
2022/07/21 08:03:56;;;;;;;15.48;9.65;;;21.20;99.90;;;;;;5068342;28;20138;-64
2022/07/21 08:06:21;;;;;;;17.15;9.55;;;21.10;99.90;;;;;;5065184;28;20392;-64
2022/07/21 08:08:48;;;;;;;16.33;9.88;;;21.20;99.90;;;;;;5058384;28;20078;-65
2022/07/21 08:11:15;;;;;;;14.40;9.23;;;21.20;99.90;;;;;;5077101;28;20075;-66
2022/07/21 08:13:41;;;;;;;17.30;9.25;;;21.20;99.90;;;;;;5063260;28;20420;-63
2022/07/21 08:16:07;;;;;;;16.48;8.82;;;21.50;99.90;;;;;;5066075;28;20012;-62
2022/07/21 08:18:33;;;;;;;16.98;8.88;;;21.60;99.90;;;;;;5050679;28;20048;-67
2022/07/21 08:20:58;;;;;;;13.13;8.27;;;21.40;99.90;;;;;;5069006;28;20021;-64
2022/07/21 08:23:24;;;;;;;15.98;9.20;;;21.50;99.90;;;;;;5066998;28;20515;-64
2022/07/21 08:25:50;;;;;;;14.75;8.63;;;21.60;99.90;;;;;;5068764;28;20036;-64
2022/07/21 08:28:15;;;;;;;14.75;8.00;;;21.70;99.90;;;;;;5067149;28;20036;-64
2022/07/21 08:30:41;;;;;;;15.60;8.48;;;21.70;99.90;;;;;;5067279;28;20025;-64
2022/07/21 08:33:07;;;;;;;12.88;8.63;;;21.70;99.90;;;;;;5067300;28;20020;-64
2022/07/21 08:35:34;;;;;;;12.48;7.70;;;22.10;99.90;;;;;;5064750;28;20095;-64
2022/07/21 08:38:05;;;;;;;13.88;7.80;;;22.30;99.90;;;;;;5067607;28;20020;-64
2022/07/21 08:40:36;;;;;;;13.07;7.78;;;22.80;99.90;;;;;;5062672;28;20048;-66
2022/07/21 08:43:03;;;;;;;14.63;7.35;;;22.90;99.90;;;;;;5064464;28;20063;-66
2022/07/21 08:45:30;;;;;;;13.88;7.57;;;23.10;99.90;;;;;;5062088;28;20389;-67
2022/07/21 08:47:57;;;;;;;12.80;7.00;;;23.30;99.90;;;;;;5066070;28;20090;-64
2022/07/21 08:50:26;;;;;;;10.93;6.40;;;23.30;99.90;;;;;;5063438;28;20115;-65
2022/07/21 08:52:52;;;;;;;14.20;6.80;;;23.40;99.90;;;;;;5067779;28;20056;-67
2022/07/21 08:55:17;;;;;;;12.27;7.00;;;23.40;99.90;;;;;;5067942;28;20044;-65
2022/07/21 08:57:43;;;;;;;15.00;7.22;;;23.60;99.90;;;;;;5065452;28;20191;-65
2022/07/21 09:00:10;;;;;;;12.55;6.90;;;23.70;99.90;;;;;;5064332;28;20061;-65
2022/07/21 09:02:38;;;;;;;13.15;7.72;;;24.10;99.90;;;;;;5067019;28;20036;-65
2022/07/21 09:05:07;;;;;;;11.52;7.13;;;23.70;99.90;;;;;;5066578;28;20032;-65
2022/07/21 09:07:57;;;;;;;13.50;6.95;;;23.40;99.90;;;;;;5043058;28;20047;-65
2022/07/21 09:10:26;;;;;;;11.90;7.32;;;23.50;99.90;;;;;;5059889;28;20025;-66
2022/07/21 09:13:06;;;;;;;12.68;5.93;;;23.70;99.90;;;;;;5064646;28;20415;-65
2022/07/21 09:15:34;;;;;;;12.05;6.93;;;23.70;99.90;;;;;;5063270;28;20020;-64
2022/07/21 09:18:06;;;;;;;14.20;7.38;;;23.60;99.90;;;;;;5067337;28;20123;-64
2022/07/21 09:20:32;;;;;;;12.43;6.97;;;23.40;99.90;;;;;;5059980;28;20388;-64
2022/07/21 09:23:10;;;;;;;10.63;6.10;;;23.60;99.90;;;;;;5063399;28;20060;-65
2022/07/21 09:25:43;;;;;;;13.02;6.57;;;23.50;99.90;;;;;;5067408;28;20036;-65
2022/07/21 09:28:12;;;;;;;10.80;5.82;;;23.90;99.90;;;;;;5063104;28;20119;-65
2022/07/21 09:30:52;;;;;;;10.60;5.53;;;23.70;99.90;;;;;;5065200;28;20115;-64
2022/07/21 09:33:45;;;;;;;12.93;6.15;;;23.90;99.90;;;;;;5065725;28;20051;-65
2022/07/21 09:36:16;;;;;;;11.05;5.72;;;24.30;99.90;;;;;;5061401;28;20090;-64
2022/07/21 09:38:55;;;;;;;11.15;5.88;;;24.20;99.90;;;;;;5061915;28;20028;-65
2022/07/21 09:41:23;;;;;;;14.45;5.25;;;24.20;99.90;;;;;;5062916;28;20386;-64
2022/07/21 09:43:53;;;;;;;12.15;5.55;;;23.90;99.90;;;;;;5061819;28;20376;-64
2022/07/21 09:46:27;;;;;;;10.20;5.45;;;23.60;99.90;;;;;;5065185;28;20033;-64
2022/07/21 09:48:58;;;;;;;9.52;5.70;;;23.70;99.90;;;;;;5064938;28;20032;-64
2022/07/21 09:51:31;;;;;;;13.48;6.50;;;23.60;99.90;;;;;;5060930;28;20108;-64
2022/07/21 09:53:58;;;;;;;10.82;6.60;;;23.30;99.90;;;;;;5046281;28;20119;-64
2022/07/21 09:56:26;;;;;;;12.18;6.60;;;23.30;99.90;;;;;;5047972;28;20029;-64
2022/07/21 09:58:53;;;;;;;12.40;6.47;;;23.20;99.90;;;;;;5061947;28;20111;-64
2022/07/21 10:01:20;;;;;;;14.57;7.05;;;23.20;99.90;;;;;;5064480;28;20050;-64
2022/07/21 10:03:47;;;;;;;12.15;7.43;;;23.10;99.90;;;;;;5068113;28;20324;-66
2022/07/21 10:06:15;;;;;;;13.35;7.72;;;23.40;99.90;;;;;;5048636;28;20059;-65
2022/07/21 10:08:42;;;;;;;11.95;6.55;;;23.70;99.90;;;;;;5061371;28;20028;-65
2022/07/21 10:11:09;;;;;;;12.55;6.65;;;23.60;99.90;;;;;;5063206;28;20392;-65
2022/07/21 10:13:35;;;;;;;12.07;6.85;;;23.50;99.90;;;;;;5058986;28;20081;-67
2022/07/21 10:16:01;;;;;;;11.13;6.65;;;23.70;99.90;;;;;;5063589;28;20092;-65
2022/07/21 10:18:37;;;;;;;13.98;7.45;;;23.70;99.90;;;;;;5041389;28;20131;-65
2022/07/21 10:21:30;;;;;;;11.57;6.38;;;23.50;99.90;;;;;;5065512;28;20024;-65
2022/07/21 10:23:56;;;;;;;13.15;7.30;;;23.10;99.90;;;;;;5060733;28;20147;-65
2022/07/21 10:26:22;;;;;;;10.95;6.97;;;23.10;99.90;;;;;;5054988;28;20048;-65
2022/07/21 10:28:48;;;;;;;13.25;7.90;;;23.00;99.90;;;;;;5065423;28;20098;-65
2022/07/21 10:31:24;;;;;;;12.07;8.25;;;22.60;99.90;;;;;;5063628;28;20036;-65
2022/07/21 10:33:49;;;;;;;;;;;22.40;99.90;;;;;;5065672;28;20032;-65
2022/07/21 10:36:27;;;;;;;;;;;22.30;99.90;;;;;;5064865;28;19913;-65
2022/07/21 10:39:17;;;;;;;;;;;22.40;99.90;;;;;;5064747;28;19966;-65
2022/07/21 10:41:50;;;;;;;;;;;22.70;99.90;;;;;;5055542;28;19912;-65
2022/07/21 10:44:28;;;;;;;;;;;23.10;99.90;;;;;;5064839;28;19912;-65
2022/07/21 10:47:07;;;;;;;;;;;23.60;99.90;;;;;;5060982;28;20273;-65
2022/07/21 10:49:52;;;;;;;;;;;23.90;99.90;;;;;;5060367;28;19908;-65
2022/07/21 10:52:39;;;;;;;;;;;23.80;99.90;;;;;;5064627;28;19917;-65
2022/07/21 10:55:11;;;;;;;;;;;24.00;99.90;;;;;;5060662;28;19916;-65
2022/07/21 10:57:38;;;;;;;;;;;24.30;99.90;;;;;;5047211;28;19916;-65
2022/07/21 11:00:16;;;;;;;;;;;24.20;99.90;;;;;;5062796;28;20236;-64
2022/07/21 11:02:41;;;;;;;;;;;24.00;99.90;;;;;;5065453;28;19905;-64
2022/07/21 11:05:07;;;;;;;;;;;23.50;99.90;;;;;;5065097;28;19915;-64
2022/07/21 11:10:19;;;;;;;;;;;23.30;99.90;;;;;;5079269;28;19976;-83
2022/07/21 11:12:57;;;;;;;;;;;23.20;99.90;;;;;;5056276;28;19920;-83
2022/07/21 11:15:43;;;;;;;;;;;23.20;99.90;;;;;;5048406;28;19909;-83
2022/07/21 11:18:08;;;;;;;;;;;23.10;99.90;;;;;;5064939;28;19995;-83
2022/07/21 11:20:34;;;;;;;;;;;23.00;99.90;;;;;;5061034;28;20347;-83
2022/07/21 11:23:02;;;;;;;;;;;23.20;99.90;;;;;;5051153;28;19908;-83
2022/07/21 11:25:29;;;;;;;;;;;23.10;99.90;;;;;;5073209;28;19909;-84
2022/07/21 11:27:54;;;;;;;;;;;23.20;99.90;;;;;;5075480;28;19912;-84
2022/07/21 11:30:20;;;;;;;;;;;23.10;99.90;;;;;;5054229;28;20498;-83
2022/07/21 11:32:47;;;;;;;;;;;22.80;99.90;;;;;;5056490;28;20004;-82
2022/07/21 11:35:12;;;;;;;;;;;22.90;99.90;;;;;;5034137;28;19920;-83
2022/07/21 11:37:42;;;;;;;;;;;23.00;99.90;;;;;;5057508;28;19909;-83
2022/07/21 11:40:13;;;;;;;;;;;22.80;99.90;;;;;;5041256;28;19986;-83
2022/07/21 11:42:39;;;;;;;;;;;22.50;99.90;;;;;;5047779;28;20340;-83
2022/07/21 11:45:05;;;;;;;;;;;22.30;99.90;;;;;;5037062;28;19920;-83
2022/07/21 11:47:31;;;;;;;;;;;22.10;99.90;;;;;;5031717;28;19928;-84
2022/07/21 11:49:58;;;;;;;;;;;22.00;99.90;;;;;;5046157;28;19927;-83
2022/07/21 11:52:27;;;;;;;;;;;22.10;99.90;;;;;;5052610;28;19915;-83
2022/07/21 11:54:56;;;;;;;;;;;21.80;99.90;;;;;;5040162;28;19920;-83
2022/07/21 11:57:22;;;;;;;;;;;21.70;99.90;;;;;;5035792;28;19908;-82
2022/07/21 11:59:48;;;;;;;;;;;21.60;99.90;;;;;;5039320;28;19908;-83
2022/07/21 12:02:16;;;;;;;;;;;21.70;99.90;;;;;;5035515;28;19909;-83
2022/07/21 12:04:43;;;;;;;;;;;21.80;99.90;;;;;;5043986;28;20007;-83
2022/07/21 12:07:29;;;;;;;;;;;21.60;99.90;;;;;;5058822;28;19912;-83
2022/07/21 12:09:57;;;;;;;;;;;21.20;99.90;;;;;;5051756;28;19936;-82
2022/07/21 12:12:32;;;;;;;;;;;20.90;99.90;;;;;;5039925;28;19912;-82
2022/07/21 12:14:58;;;;;;;;;;;20.80;99.90;;;;;;5052601;28;19912;-82
2022/07/21 12:17:36;;;;;;;;;;;20.60;99.90;;;;;;5040002;28;20269;-82
2022/07/21 12:20:02;;;;;;;;;;;20.50;99.90;;;;;;5034731;28;20357;-82
2022/07/21 12:22:32;;;;;;;;;;;20.60;99.90;;;;;;5048125;28;19905;-82
2022/07/21 12:24:58;;;;;;;;;;;20.50;99.90;;;;;;5055048;28;19909;-82
2022/07/21 12:27:24;;;;;;;;;;;20.40;99.90;;;;;;5055077;28;19904;-81
2022/07/21 12:29:50;;;;;;;;;;;20.40;99.90;;;;;;5056128;28;20034;-82
2022/07/21 12:32:35;;;;;;;;;;;20.50;99.90;;;;;;5054152;28;19905;-82
2022/07/21 12:35:01;;;;;;;;;;;20.40;99.90;;;;;;5037305;28;20564;-82
2022/07/21 12:37:45;;;;;;;;;;;20.30;99.90;;;;;;5046198;28;19995;-82
2022/07/21 12:40:11;;;;;;;;;;;20.20;99.90;;;;;;5039713;28;19934;-82
2022/07/21 12:42:38;;;;;;;;;;;20.20;99.90;;;;;;5051985;28;20292;-82
2022/07/21 12:45:33;;;;;;;;;;;20.20;99.90;;;;;;5044575;28;20078;-82
2022/07/21 12:48:18;;;;;;;;;;;20.20;99.90;;;;;;5027610;28;19991;-82
2022/07/21 12:50:56;;;;;;;;;;;20.10;99.90;;;;;;5048444;28;19909;-84
2022/07/21 12:53:22;;;;;;;;;;;20.00;99.90;;;;;;5054634;28;19913;-83
2022/07/21 12:55:47;;;;;;;;;;;19.90;99.90;;;;;;5054530;28;20322;-84